createdAt,value
2023-03-30T00:00:21.132Z,7.70
2023-03-30T00:02:49.527Z,8.10
2023-03-30T00:05:20.790Z,7.77
2023-03-30T00:07:47.642Z,7.78
2023-03-30T00:10:19.069Z,7.90
2023-03-30T00:12:47.350Z,8.48
2023-03-30T00:15:15.517Z,7.55
2023-03-30T00:17:42.408Z,8.10
2023-03-30T00:20:11.997Z,7.78
2023-03-30T00:22:42.303Z,8.38
2023-03-30T00:25:10.742Z,7.95
2023-03-30T00:27:37.793Z,8.43
2023-03-30T00:30:05.739Z,8.17
2023-03-30T00:32:34.402Z,8.00
2023-03-30T00:35:01.572Z,8.40
2023-03-30T00:37:28.706Z,7.97
2023-03-30T00:39:55.565Z,8.30
2023-03-30T00:42:22.530Z,7.77
2023-03-30T00:45:09.746Z,8.32
2023-03-30T00:47:37.440Z,7.97
2023-03-30T00:50:04.994Z,9.75
2023-03-30T00:52:33.308Z,8.98
2023-03-30T00:55:00.129Z,8.03
2023-03-30T00:57:27.083Z,7.93
2023-03-30T00:59:53.871Z,8.50
2023-03-30T01:02:21.763Z,8.10
2023-03-30T01:04:50.526Z,8.13
2023-03-30T01:07:17.544Z,7.57
2023-03-30T01:09:44.311Z,7.97
2023-03-30T01:12:11.344Z,8.48
2023-03-30T01:14:38.322Z,8.45
2023-03-30T01:17:31.624Z,8.57
2023-03-30T01:20:16.967Z,7.70
2023-03-30T01:23:08.788Z,7.35
2023-03-30T01:25:56.578Z,7.80
2023-03-30T01:28:49.607Z,8.05
2023-03-30T01:31:35.304Z,8.45
2023-03-30T01:34:30.992Z,8.23
2023-03-30T01:37:19.404Z,8.25
2023-03-30T01:40:18.166Z,8.32
2023-03-30T01:43:17.027Z,7.55
2023-03-30T01:45:46.589Z,8.20
2023-03-30T01:48:39.479Z,8.10
2023-03-30T01:51:07.021Z,8.15
2023-03-30T01:54:07.844Z,8.57
2023-03-30T01:56:41.969Z,8.32
2023-03-30T01:59:10.247Z,8.35
2023-03-30T02:01:38.134Z,8.73
2023-03-30T02:04:05.141Z,8.68
2023-03-30T02:06:43.408Z,8.48
2023-03-30T02:09:15.720Z,8.75
2023-03-30T02:11:47.413Z,8.73
2023-03-30T02:14:16.130Z,8.27
2023-03-30T02:16:47.805Z,9.85
2023-03-30T02:19:15.687Z,8.32
2023-03-30T02:21:43.273Z,8.93
2023-03-30T02:24:18.306Z,8.77
2023-03-30T02:26:50.507Z,8.70
2023-03-30T02:29:17.646Z,8.40
2023-03-30T02:31:44.947Z,9.82
2023-03-30T02:34:35.122Z,8.52
2023-03-30T02:37:07.820Z,9.32
2023-03-30T02:39:37.127Z,9.03
2023-03-30T02:42:28.502Z,9.35
2023-03-30T02:45:30.779Z,9.18
2023-03-30T02:48:18.885Z,8.85
2023-03-30T02:51:04.646Z,9.38
2023-03-30T02:53:45.560Z,9.03
2023-03-30T02:56:19.408Z,8.30
2023-03-30T02:59:08.908Z,10.43
2023-03-30T03:01:42.963Z,9.98
2023-03-30T03:04:10.276Z,9.93
2023-03-30T03:06:37.648Z,8.87
2023-03-30T03:09:04.745Z,9.57
2023-03-30T03:11:31.596Z,10.07
2023-03-30T03:13:58.387Z,9.57
2023-03-30T03:16:25.852Z,9.88
2023-03-30T03:18:52.787Z,10.10
2023-03-30T03:21:19.547Z,9.48
2023-03-30T03:23:48.522Z,9.52
2023-03-30T03:26:15.521Z,10.05
2023-03-30T03:28:42.923Z,9.80
2023-03-30T03:31:09.878Z,9.60
2023-03-30T03:33:36.711Z,9.65
2023-03-30T03:36:04.169Z,9.25
2023-03-30T03:38:31.213Z,8.77
2023-03-30T03:40:58.704Z,9.63
2023-03-30T03:43:25.756Z,9.83
2023-03-30T03:45:52.928Z,10.00
2023-03-30T03:48:20.672Z,9.52
2023-03-30T03:50:53.227Z,9.13
2023-03-30T03:53:20.150Z,9.40
2023-03-30T03:55:47.029Z,9.73
2023-03-30T03:58:14.003Z,10.32
2023-03-30T04:00:41.201Z,9.90
2023-03-30T04:03:09.311Z,10.65
2023-03-30T04:05:36.260Z,10.77
2023-03-30T04:08:03.216Z,9.70
2023-03-30T04:10:30.075Z,10.18
2023-03-30T04:12:57.283Z,10.50
2023-03-30T04:15:24.709Z,9.27
2023-03-30T04:17:58.059Z,10.27
2023-03-30T04:20:26.149Z,10.00
2023-03-30T04:22:55.991Z,9.43
2023-03-30T04:25:25.884Z,9.93
2023-03-30T04:27:53.265Z,10.00
2023-03-30T04:30:20.424Z,10.77
2023-03-30T04:32:54.792Z,10.27
2023-03-30T04:35:21.797Z,9.77
2023-03-30T04:37:52.426Z,10.38
2023-03-30T04:40:19.673Z,10.52
2023-03-30T04:42:50.144Z,10.25
2023-03-30T04:45:20.733Z,10.40
2023-03-30T04:47:47.659Z,9.88
2023-03-30T04:50:14.699Z,10.30
2023-03-30T04:52:41.515Z,10.15
2023-03-30T04:55:10.031Z,10.30
2023-03-30T04:57:36.990Z,10.00
2023-03-30T05:00:07.725Z,10.23
2023-03-30T05:02:34.672Z,10.15
2023-03-30T05:05:01.563Z,9.82
2023-03-30T05:07:28.511Z,10.20
2023-03-30T05:09:55.315Z,9.97
2023-03-30T05:12:22.109Z,9.80
2023-03-30T05:14:48.929Z,10.45
2023-03-30T05:17:16.117Z,9.60
2023-03-30T05:19:42.953Z,9.10
2023-03-30T05:22:09.759Z,9.70
2023-03-30T05:24:36.571Z,9.10
2023-03-30T05:27:05.098Z,9.95
2023-03-30T05:29:32.041Z,9.60
2023-03-30T05:31:58.878Z,9.98
2023-03-30T05:34:25.872Z,9.73
2023-03-30T05:36:52.823Z,9.30
2023-03-30T05:39:19.997Z,9.20
2023-03-30T05:41:46.791Z,10.00
2023-03-30T05:44:13.672Z,9.98
2023-03-30T05:46:40.554Z,10.20
2023-03-30T05:49:07.369Z,9.10
2023-03-30T05:51:34.107Z,9.38
2023-03-30T05:54:00.928Z,9.40
2023-03-30T05:56:27.710Z,9.57
2023-03-30T05:58:54.452Z,8.97
2023-03-30T06:01:21.453Z,9.35
2023-03-30T06:03:48.504Z,9.30
2023-03-30T06:06:15.646Z,9.80
2023-03-30T06:08:42.410Z,9.45
2023-03-30T06:11:09.167Z,9.00
2023-03-30T06:13:36.045Z,9.75
2023-03-30T06:16:03.813Z,9.57
2023-03-30T06:18:30.895Z,9.98
2023-03-30T06:20:58.004Z,9.10
2023-03-30T06:23:24.849Z,9.17
2023-03-30T06:25:55.349Z,9.13
2023-03-30T06:28:22.388Z,10.07
2023-03-30T06:30:49.627Z,9.77
2023-03-30T06:33:16.873Z,9.57
2023-03-30T06:35:47.849Z,9.10
2023-03-30T06:38:15.432Z,10.38
2023-03-30T06:40:42.410Z,10.10
2023-03-30T06:43:11.954Z,9.88
2023-03-30T06:45:38.854Z,10.25
2023-03-30T06:48:07.212Z,9.80
2023-03-30T06:50:34.463Z,9.90
2023-03-30T06:53:01.275Z,9.77
2023-03-30T06:55:28.288Z,10.38
2023-03-30T06:57:55.074Z,9.73
2023-03-30T07:00:22.396Z,10.10
2023-03-30T07:02:49.156Z,9.57
2023-03-30T07:05:16.117Z,10.18
2023-03-30T07:07:43.150Z,10.18
2023-03-30T07:10:10.633Z,10.10
2023-03-30T07:12:41.977Z,10.40
2023-03-30T07:15:09.307Z,9.57
2023-03-30T07:17:36.623Z,9.63
2023-03-30T07:20:04.135Z,9.90
2023-03-30T07:22:31.118Z,9.90
2023-03-30T07:24:58.857Z,10.13
2023-03-30T07:27:26.032Z,10.05
2023-03-30T07:29:53.450Z,10.80
2023-03-30T07:32:21.645Z,11.30
2023-03-30T07:34:48.525Z,10.80
2023-03-30T07:37:20.284Z,10.60
2023-03-30T07:39:47.953Z,9.90
2023-03-30T07:42:15.012Z,10.75
2023-03-30T07:44:41.793Z,10.77
2023-03-30T07:47:08.765Z,9.93
2023-03-30T07:49:35.550Z,9.83
2023-03-30T07:52:02.438Z,9.52
2023-03-30T07:54:29.296Z,10.38
2023-03-30T07:56:56.070Z,9.32
2023-03-30T07:59:23.692Z,10.73
2023-03-30T08:01:52.171Z,10.17
2023-03-30T08:04:19.182Z,10.00
2023-03-30T08:06:46.182Z,10.35
2023-03-30T08:09:13.291Z,9.57
2023-03-30T08:11:41.749Z,10.18
2023-03-30T08:14:08.628Z,10.27
2023-03-30T08:16:35.713Z,9.70
2023-03-30T08:19:02.588Z,10.40
2023-03-30T08:21:29.408Z,10.45
2023-03-30T08:23:58.918Z,11.45
2023-03-30T08:26:26.474Z,11.17
2023-03-30T08:28:53.325Z,11.10
2023-03-30T08:31:21.166Z,12.25
2023-03-30T08:33:49.187Z,10.63
2023-03-30T08:36:16.338Z,10.82
2023-03-30T08:38:45.316Z,10.63
2023-03-30T08:41:30.492Z,10.55
2023-03-30T08:44:28.268Z,11.27
2023-03-30T08:46:55.120Z,10.15
2023-03-30T08:49:22.413Z,10.50
2023-03-30T08:51:51.488Z,10.10
2023-03-30T08:54:19.696Z,10.02
2023-03-30T08:57:11.568Z,9.57
2023-03-30T09:00:09.001Z,9.63
2023-03-30T09:02:39.800Z,8.82
2023-03-30T09:05:19.134Z,8.63
2023-03-30T09:08:01.550Z,7.95
2023-03-30T09:10:29.614Z,8.85
2023-03-30T09:12:58.088Z,8.82
2023-03-30T09:15:32.218Z,8.20
2023-03-30T09:18:22.595Z,7.77
2023-03-30T09:20:51.659Z,7.70
2023-03-30T09:23:18.537Z,8.75
2023-03-30T09:25:51.212Z,7.22
2023-03-30T09:28:36.630Z,8.85
2023-03-30T09:31:24.543Z,9.93
2023-03-30T09:33:58.572Z,9.88
2023-03-30T09:36:44.068Z,9.57
2023-03-30T09:39:20.619Z,8.80
2023-03-30T09:42:22.018Z,8.60
2023-03-30T09:44:52.678Z,8.43
2023-03-30T09:47:22.716Z,7.57
2023-03-30T09:49:49.629Z,7.50
2023-03-30T09:52:21.005Z,7.10
2023-03-30T09:54:47.815Z,7.18
2023-03-30T09:57:31.872Z,7.20
2023-03-30T10:00:00.306Z,7.25
2023-03-30T10:02:29.231Z,7.07
2023-03-30T10:05:00.990Z,8.23
2023-03-30T10:07:34.745Z,8.82
2023-03-30T10:10:13.321Z,8.23
2023-03-30T10:12:40.266Z,7.97
2023-03-30T10:15:07.943Z,8.20
2023-03-30T10:17:34.851Z,6.78
2023-03-30T10:20:26.839Z,7.07
2023-03-30T10:22:57.729Z,7.10
2023-03-30T10:25:27.406Z,6.20
2023-03-30T10:27:56.731Z,6.32
2023-03-30T10:30:25.985Z,7.18
2023-03-30T10:32:55.588Z,6.15
2023-03-30T10:35:24.963Z,5.87
2023-03-30T10:37:53.513Z,6.03
2023-03-30T10:40:24.553Z,6.32
2023-03-30T10:42:55.540Z,6.13
2023-03-30T10:45:33.116Z,5.95
2023-03-30T10:48:58.891Z,6.23
2023-03-30T10:52:00.012Z,5.10
2023-03-30T10:54:30.085Z,6.07
2023-03-30T10:57:16.523Z,5.80
2023-03-30T11:00:20.771Z,6.10
2023-03-30T11:02:53.613Z,5.97
2023-03-30T11:05:26.657Z,6.18
2023-03-30T11:08:01.514Z,6.40
2023-03-30T11:10:32.089Z,5.80
2023-03-30T11:13:18.712Z,6.45
2023-03-30T11:15:58.666Z,5.73
2023-03-30T11:19:04.135Z,6.32
2023-03-30T11:21:46.130Z,6.65
2023-03-30T11:24:20.030Z,6.82
2023-03-30T11:26:50.324Z,6.07
2023-03-30T11:29:32.286Z,5.90
2023-03-30T11:32:01.802Z,6.13
2023-03-30T11:34:37.408Z,6.40
2023-03-30T11:37:29.855Z,6.45
2023-03-30T11:40:20.041Z,6.32
2023-03-30T11:42:47.647Z,6.47
2023-03-30T11:45:37.868Z,6.85
2023-03-30T11:48:25.964Z,6.07
2023-03-30T11:51:30.472Z,6.25
2023-03-30T11:54:01.908Z,6.05
2023-03-30T11:56:32.207Z,6.67
2023-03-30T11:59:04.894Z,7.45
2023-03-30T12:01:40.552Z,7.47
2023-03-30T12:04:12.326Z,7.45
2023-03-30T12:06:39.803Z,8.55
2023-03-30T12:09:24.455Z,8.13
2023-03-30T12:12:12.241Z,8.98
2023-03-30T12:14:57.807Z,8.20
2023-03-30T12:17:45.570Z,7.32
2023-03-30T12:20:31.031Z,8.88
2023-03-30T12:23:19.631Z,7.70
2023-03-30T12:25:50.478Z,8.00
2023-03-30T12:28:18.065Z,9.18
2023-03-30T12:30:48.642Z,8.50
2023-03-30T12:33:37.596Z,8.60
2023-03-30T12:36:23.182Z,8.70
2023-03-30T12:38:50.019Z,9.77
2023-03-30T12:41:18.644Z,10.30
2023-03-30T12:44:02.556Z,10.55
2023-03-30T12:46:50.268Z,9.88
2023-03-30T12:49:29.273Z,10.87
2023-03-30T12:52:27.933Z,10.73
2023-03-30T12:55:18.753Z,10.68
2023-03-30T12:57:45.635Z,11.05
2023-03-30T13:00:35.536Z,11.88
2023-03-30T13:03:19.210Z,12.17
2023-03-30T13:05:46.067Z,11.70
2023-03-30T13:08:37.820Z,12.77
2023-03-30T13:11:08.796Z,12.40
2023-03-30T13:13:54.303Z,11.82
2023-03-30T13:16:45.722Z,11.70
2023-03-30T13:19:31.935Z,12.07
2023-03-30T13:22:17.106Z,12.32
2023-03-30T13:25:02.902Z,13.05
2023-03-30T13:27:37.468Z,12.88
2023-03-30T13:30:07.949Z,11.77
2023-03-30T13:32:53.183Z,12.50
2023-03-30T13:35:30.896Z,12.95
2023-03-30T13:38:16.228Z,13.02
2023-03-30T13:41:04.071Z,13.55
2023-03-30T13:43:39.035Z,12.10
2023-03-30T13:46:24.429Z,13.68
2023-03-30T13:49:26.724Z,13.55
2023-03-30T13:51:53.891Z,13.98
2023-03-30T13:54:28.945Z,14.80
2023-03-30T13:57:17.909Z,14.73
2023-03-30T13:59:47.356Z,15.00
2023-03-30T14:02:16.408Z,16.02
2023-03-30T14:04:44.857Z,15.07
2023-03-30T14:07:19.507Z,15.18
2023-03-30T14:10:11.268Z,15.47
2023-03-30T14:12:39.435Z,16.15
2023-03-30T14:15:23.172Z,15.07
2023-03-30T14:17:58.522Z,15.73
2023-03-30T14:20:56.830Z,16.08
2023-03-30T14:23:34.259Z,16.37
2023-03-30T14:26:06.343Z,16.02
2023-03-30T14:28:37.991Z,15.85
2023-03-30T14:31:19.816Z,16.02
2023-03-30T14:33:47.195Z,16.52
2023-03-30T14:36:16.260Z,15.10
2023-03-30T14:38:48.102Z,15.48
2023-03-30T14:41:16.963Z,16.05
2023-03-30T14:43:47.918Z,15.48
2023-03-30T14:46:14.645Z,15.88
2023-03-30T14:48:43.059Z,16.37
2023-03-30T14:51:35.769Z,16.98
2023-03-30T14:54:02.599Z,16.35
2023-03-30T14:56:29.455Z,17.05
2023-03-30T14:58:56.377Z,17.58
2023-03-30T15:01:31.561Z,16.10
2023-03-30T15:04:10.534Z,16.75
2023-03-30T15:06:37.992Z,18.00
2023-03-30T15:09:08.090Z,16.77
2023-03-30T15:11:34.885Z,17.52
2023-03-30T15:14:04.002Z,16.37
2023-03-30T15:16:33.062Z,17.73
2023-03-30T15:19:28.046Z,17.33
2023-03-30T15:21:58.307Z,17.73
2023-03-30T15:24:26.941Z,16.45
2023-03-30T15:26:55.489Z,16.20
2023-03-30T15:29:22.395Z,17.80
2023-03-30T15:32:10.477Z,17.30
2023-03-30T15:34:37.592Z,16.77
2023-03-30T15:37:04.320Z,17.50
2023-03-30T15:39:34.514Z,17.13
2023-03-30T15:42:07.694Z,16.95
2023-03-30T15:44:36.474Z,16.92
2023-03-30T15:47:04.181Z,17.73
2023-03-30T15:49:44.705Z,17.95
2023-03-30T15:52:19.820Z,18.13
2023-03-30T15:54:59.162Z,16.98
2023-03-30T15:57:29.793Z,17.65
2023-03-30T15:59:58.223Z,18.73
2023-03-30T16:02:38.096Z,17.85
2023-03-30T16:05:06.793Z,17.53
2023-03-30T16:07:34.767Z,17.80
2023-03-30T16:10:01.575Z,18.00
2023-03-30T16:12:29.434Z,17.90
2023-03-30T16:14:56.455Z,18.23
2023-03-30T16:17:23.225Z,17.57
2023-03-30T16:19:50.075Z,17.75
2023-03-30T16:22:16.834Z,17.60
2023-03-30T16:24:43.751Z,17.65
2023-03-30T16:27:11.365Z,17.67
2023-03-30T16:29:38.224Z,17.67
2023-03-30T16:32:05.584Z,17.95
2023-03-30T16:34:32.690Z,17.80
2023-03-30T16:36:59.544Z,18.02
2023-03-30T16:39:27.922Z,18.23
2023-03-30T16:41:55.090Z,17.13
2023-03-30T16:44:22.962Z,17.58
2023-03-30T16:46:50.221Z,18.80
2023-03-30T16:49:21.738Z,17.08
2023-03-30T16:51:48.671Z,17.98
2023-03-30T16:54:29.505Z,18.17
2023-03-30T16:56:58.930Z,17.88
2023-03-30T16:59:27.242Z,18.52
2023-03-30T17:01:54.012Z,17.77
2023-03-30T17:04:20.934Z,17.88
2023-03-30T17:06:47.808Z,19.13
2023-03-30T17:09:17.182Z,17.63
2023-03-30T17:11:44.872Z,19.52
2023-03-30T17:14:11.774Z,19.08
2023-03-30T17:16:38.929Z,19.20
2023-03-30T17:19:05.908Z,18.87
2023-03-30T17:21:32.728Z,18.80
2023-03-30T17:23:59.483Z,19.70
2023-03-30T17:26:26.368Z,19.17
2023-03-30T17:28:53.356Z,18.95
2023-03-30T17:31:21.368Z,17.87
2023-03-30T17:33:48.335Z,19.02
2023-03-30T17:36:21.714Z,19.48
2023-03-30T17:38:48.752Z,19.38
2023-03-30T17:41:15.802Z,19.63
2023-03-30T17:43:43.754Z,19.20
2023-03-30T17:46:14.650Z,19.33
2023-03-30T17:48:42.184Z,19.63
2023-03-30T17:51:08.944Z,19.42
2023-03-30T17:53:35.966Z,19.05
2023-03-30T17:56:02.922Z,18.53
2023-03-30T17:58:33.098Z,19.27
2023-03-30T18:01:01.136Z,18.98
2023-03-30T18:03:29.615Z,18.55
2023-03-30T18:05:57.911Z,19.52
2023-03-30T18:08:24.944Z,20.00
2023-03-30T18:10:55.700Z,19.15
2023-03-30T18:13:22.768Z,19.25
2023-03-30T18:15:50.614Z,19.88
2023-03-30T18:18:22.757Z,19.15
2023-03-30T18:20:53.961Z,19.47
2023-03-30T18:23:21.018Z,19.80
2023-03-30T18:25:47.890Z,20.30
2023-03-30T18:28:25.470Z,19.65
2023-03-30T18:30:57.346Z,18.88
2023-03-30T18:33:24.913Z,18.70
2023-03-30T18:35:53.877Z,19.83
2023-03-30T18:38:21.513Z,19.45
2023-03-30T18:40:49.904Z,19.27
2023-03-30T18:43:16.851Z,20.70
2023-03-30T18:45:48.634Z,20.23
2023-03-30T18:48:17.592Z,20.95
2023-03-30T18:50:48.456Z,20.63
2023-03-30T18:53:16.859Z,19.45
2023-03-30T18:55:44.905Z,20.35
2023-03-30T18:58:16.664Z,19.33
2023-03-30T19:00:43.551Z,19.13
2023-03-30T19:03:10.951Z,21.02
2023-03-30T19:05:39.205Z,19.50
2023-03-30T19:08:06.424Z,19.88
2023-03-30T19:10:36.181Z,20.00
2023-03-30T19:13:02.970Z,19.23
2023-03-30T19:15:34.672Z,21.30
2023-03-30T19:18:03.481Z,21.73
2023-03-30T19:20:32.039Z,20.73
2023-03-30T19:22:58.852Z,21.63
2023-03-30T19:25:26.776Z,21.50
2023-03-30T19:28:03.124Z,22.95
2023-03-30T19:30:33.004Z,21.90
2023-03-30T19:33:02.166Z,21.67
2023-03-30T19:35:29.245Z,21.50
2023-03-30T19:37:56.303Z,20.65
2023-03-30T19:40:23.625Z,20.73
2023-03-30T19:42:50.517Z,20.90
2023-03-30T19:45:21.246Z,22.05
2023-03-30T19:47:48.198Z,21.87
2023-03-30T19:50:18.104Z,21.25
2023-03-30T19:52:48.743Z,22.83
2023-03-30T19:55:16.083Z,20.48
2023-03-30T19:57:42.970Z,22.02
2023-03-30T20:00:16.061Z,21.63
2023-03-30T20:02:44.685Z,21.10
2023-03-30T20:05:13.047Z,22.08
2023-03-30T20:07:40.660Z,21.60
2023-03-30T20:10:09.500Z,22.23
2023-03-30T20:12:36.239Z,21.53
2023-03-30T20:15:06.096Z,21.67
2023-03-30T20:17:34.413Z,21.90
2023-03-30T20:20:07.079Z,22.00
2023-03-30T20:22:38.326Z,21.15
2023-03-30T20:25:07.542Z,21.77
2023-03-30T20:27:37.594Z,21.83
2023-03-30T20:30:05.282Z,22.42
2023-03-30T20:32:32.113Z,21.92
2023-03-30T20:34:58.988Z,21.17
2023-03-30T20:37:25.747Z,21.00
2023-03-30T20:39:52.609Z,20.10
2023-03-30T20:42:26.521Z,20.45
2023-03-30T20:44:53.660Z,20.67
2023-03-30T20:47:23.612Z,20.25
2023-03-30T20:49:50.511Z,20.20
2023-03-30T20:52:17.520Z,18.65
2023-03-30T20:54:45.061Z,17.75
2023-03-30T20:57:12.199Z,17.10
2023-03-30T20:59:39.584Z,16.77
2023-03-30T21:02:06.703Z,16.80
2023-03-30T21:04:33.886Z,15.32
2023-03-30T21:07:01.002Z,16.25
2023-03-30T21:09:28.062Z,14.93
2023-03-30T21:11:54.908Z,14.02
2023-03-30T21:14:23.810Z,13.70
2023-03-30T21:16:51.045Z,12.88
2023-03-30T21:19:17.882Z,12.88
2023-03-30T21:21:44.808Z,12.82
2023-03-30T21:24:11.778Z,12.90
2023-03-30T21:26:38.620Z,12.53
2023-03-30T21:29:05.749Z,11.77
2023-03-30T21:31:32.736Z,12.20
2023-03-30T21:33:59.915Z,12.00
2023-03-30T21:36:26.939Z,12.05
2023-03-30T21:38:56.062Z,11.40
2023-03-30T21:41:24.401Z,11.60
2023-03-30T21:43:51.285Z,11.10
2023-03-30T21:46:19.848Z,10.57
2023-03-30T21:48:46.885Z,11.00
2023-03-30T21:51:15.803Z,10.90
2023-03-30T21:53:43.294Z,10.90
2023-03-30T21:56:11.302Z,11.68
2023-03-30T21:58:38.711Z,11.20
2023-03-30T22:01:12.333Z,10.30
2023-03-30T22:03:43.138Z,10.30
2023-03-30T22:06:10.988Z,10.40
2023-03-30T22:08:37.864Z,10.45
2023-03-30T22:11:09.962Z,10.80
2023-03-30T22:13:36.720Z,10.55
2023-03-30T22:16:08.978Z,10.10
2023-03-30T22:18:36.133Z,9.98
2023-03-30T22:21:04.146Z,11.38
2023-03-30T22:23:31.456Z,10.10
2023-03-30T22:25:58.488Z,10.73
2023-03-30T22:28:26.033Z,10.00
2023-03-30T22:30:52.928Z,10.40
2023-03-30T22:33:19.771Z,11.05
2023-03-30T22:35:47.261Z,11.15
2023-03-30T22:38:14.520Z,10.77
2023-03-30T22:40:44.520Z,11.37
2023-03-30T22:43:12.117Z,11.55
2023-03-30T22:45:39.575Z,11.77
2023-03-30T22:48:06.622Z,11.55
2023-03-30T22:50:34.092Z,12.48
2023-03-30T22:53:01.061Z,13.33
2023-03-30T22:55:27.932Z,12.48
2023-03-30T22:57:55.070Z,13.63
2023-03-30T23:00:22.011Z,13.00
2023-03-30T23:02:49.553Z,13.60
2023-03-30T23:05:16.547Z,13.07
2023-03-30T23:07:44.309Z,13.50
2023-03-30T23:10:14.708Z,12.45
2023-03-30T23:12:42.290Z,12.18
2023-03-30T23:15:10.803Z,12.02
2023-03-30T23:17:37.816Z,11.13
2023-03-30T23:20:06.021Z,11.18
2023-03-30T23:22:32.825Z,11.07
2023-03-30T23:24:59.605Z,10.55
2023-03-30T23:27:26.754Z,10.00
2023-03-30T23:29:53.544Z,9.13
2023-03-30T23:32:20.401Z,9.05
2023-03-30T23:34:47.177Z,8.82
2023-03-30T23:37:13.989Z,8.70
2023-03-30T23:39:40.956Z,9.82
2023-03-30T23:42:07.826Z,8.47
2023-03-30T23:44:34.625Z,8.20
2023-03-30T23:47:02.330Z,8.60
2023-03-30T23:49:29.153Z,7.50
2023-03-30T23:51:56.092Z,8.15
2023-03-30T23:54:23.373Z,7.80
2023-03-30T23:56:57.213Z,8.23
2023-03-30T23:59:25.474Z,7.82
